createdAt,value
2018-07-26T00:00:00.687Z,6.53
2018-07-26T00:02:28.358Z,6.23
2018-07-26T00:04:56.056Z,9.90
2018-07-26T00:07:23.857Z,8.37
2018-07-26T00:09:51.632Z,13.70
2018-07-26T00:12:19.350Z,8.90
2018-07-26T00:14:47.254Z,12.10
2018-07-26T00:17:15.092Z,8.43
2018-07-26T00:19:42.958Z,11.30
2018-07-26T00:22:10.735Z,9.73
2018-07-26T00:24:38.497Z,7.90
2018-07-26T00:27:06.664Z,11.23
2018-07-26T00:29:34.420Z,13.60
2018-07-26T00:32:02.083Z,11.43
2018-07-26T00:34:29.965Z,21.27
2018-07-26T00:36:57.872Z,12.33
2018-07-26T00:39:25.629Z,16.13
2018-07-26T00:41:53.326Z,16.03
2018-07-26T00:44:21.473Z,8.70
2018-07-26T00:46:49.199Z,16.93
2018-07-26T00:49:16.832Z,9.37
2018-07-26T00:51:44.738Z,12.60
2018-07-26T00:54:12.366Z,7.90
2018-07-26T00:56:40.219Z,14.20
2018-07-26T00:59:08.022Z,12.30
2018-07-26T01:01:35.768Z,15.20
2018-07-26T01:04:03.594Z,10.80
2018-07-26T01:06:31.226Z,14.17
2018-07-26T01:08:58.966Z,10.13
2018-07-26T01:11:26.766Z,11.10
2018-07-26T01:13:54.680Z,16.17
2018-07-26T01:16:22.393Z,10.57
2018-07-26T01:18:50.000Z,10.10
2018-07-26T01:21:17.763Z,13.40
2018-07-26T01:23:45.481Z,8.87
2018-07-26T01:26:13.537Z,17.50
2018-07-26T01:28:41.286Z,10.10
2018-07-26T01:31:09.009Z,14.97
2018-07-26T01:33:36.731Z,11.77
2018-07-26T01:36:04.818Z,13.83
2018-07-26T01:38:32.664Z,12.37
2018-07-26T01:41:00.502Z,16.70
2018-07-26T01:43:49.288Z,14.67
2018-07-26T01:46:18.194Z,13.63
2018-07-26T01:48:46.047Z,13.03
2018-07-26T01:51:13.779Z,13.03
2018-07-26T01:53:42.179Z,15.23
2018-07-26T01:56:10.258Z,15.87
2018-07-26T01:58:38.318Z,15.50
2018-07-26T02:01:07.516Z,16.23
2018-07-26T02:03:35.594Z,14.40
2018-07-26T02:06:03.259Z,12.50
2018-07-26T02:08:30.968Z,12.67
2018-07-26T02:10:58.946Z,16.57
2018-07-26T02:13:26.778Z,13.77
2018-07-26T02:15:54.624Z,16.63
2018-07-26T02:18:22.495Z,12.60
2018-07-26T02:20:50.702Z,15.27
2018-07-26T02:23:18.470Z,17.00
2018-07-26T02:25:46.451Z,14.17
2018-07-26T02:28:14.355Z,12.60
2018-07-26T02:30:42.545Z,7.93
2018-07-26T02:33:10.327Z,8.87
2018-07-26T02:35:38.194Z,8.63
2018-07-26T02:38:06.272Z,9.43
2018-07-26T02:40:34.088Z,9.30
2018-07-26T02:43:02.004Z,8.20
2018-07-26T02:45:29.838Z,8.57
2018-07-26T02:47:57.669Z,11.50
2018-07-26T02:50:25.527Z,7.73
2018-07-26T02:52:53.133Z,13.80
2018-07-26T02:55:20.865Z,7.40
2018-07-26T02:57:48.494Z,9.70
2018-07-26T03:00:16.562Z,11.90
2018-07-26T03:02:44.227Z,12.80
2018-07-26T03:05:11.939Z,14.33
2018-07-26T03:07:39.651Z,15.80
2018-07-26T03:10:07.576Z,11.00
2018-07-26T03:12:35.303Z,9.10
2018-07-26T03:15:03.099Z,21.40
2018-07-26T03:17:30.688Z,9.87
2018-07-26T03:19:58.379Z,10.40
2018-07-26T03:22:26.097Z,11.17
2018-07-26T03:24:53.823Z,6.90
2018-07-26T03:27:21.562Z,10.20
2018-07-26T03:29:49.137Z,8.20
2018-07-26T03:32:16.824Z,9.63
2018-07-26T03:34:47.051Z,12.20
2018-07-26T03:37:14.733Z,7.27
2018-07-26T03:39:42.532Z,12.03
2018-07-26T03:42:10.464Z,7.83
2018-07-26T03:44:38.173Z,7.23
2018-07-26T03:47:06.163Z,7.60
2018-07-26T03:49:33.786Z,9.23
2018-07-26T03:54:51.826Z,9.40
2018-07-26T03:57:19.595Z,9.97
2018-07-26T03:59:48.245Z,12.63
2018-07-26T04:02:16.232Z,7.33
2018-07-26T04:04:43.936Z,12.93
2018-07-26T04:07:11.688Z,9.10
2018-07-26T04:09:39.351Z,6.93
2018-07-26T04:12:07.093Z,10.43
2018-07-26T04:14:34.860Z,10.33
2018-07-26T04:17:02.589Z,8.57
2018-07-26T04:19:30.290Z,10.60
2018-07-26T04:21:58.156Z,8.93
2018-07-26T04:24:26.830Z,8.17
2018-07-26T04:26:54.637Z,12.53
2018-07-26T04:29:22.530Z,8.20
2018-07-26T04:31:50.496Z,10.50
2018-07-26T04:34:18.160Z,20.83
2018-07-26T04:36:45.917Z,16.20
2018-07-26T04:39:13.688Z,17.93
2018-07-26T04:41:41.743Z,20.73
2018-07-26T04:44:09.586Z,10.70
2018-07-26T04:46:37.242Z,7.87
2018-07-26T04:49:04.905Z,13.07
2018-07-26T04:51:32.666Z,14.23
2018-07-26T04:54:00.496Z,14.57
2018-07-26T04:56:28.332Z,13.23
2018-07-26T04:58:56.073Z,12.13
2018-07-26T05:01:23.865Z,17.83
2018-07-26T05:03:51.766Z,8.97
2018-07-26T05:06:19.599Z,13.23
2018-07-26T05:08:47.355Z,11.80
2018-07-26T05:11:15.020Z,14.50
2018-07-26T05:13:42.866Z,10.67
2018-07-26T05:16:10.608Z,12.20
2018-07-26T05:18:38.436Z,8.87
2018-07-26T05:21:06.339Z,11.37
2018-07-26T05:23:34.278Z,15.50
2018-07-26T05:26:02.122Z,13.60
2018-07-26T05:28:29.840Z,9.50
2018-07-26T05:30:58.694Z,15.57
2018-07-26T05:33:26.384Z,14.90
2018-07-26T05:35:54.303Z,10.30
2018-07-26T05:38:22.289Z,37.40
2018-07-26T05:40:50.044Z,10.40
2018-07-26T05:43:17.743Z,12.30
2018-07-26T05:45:45.689Z,13.20
2018-07-26T05:48:13.322Z,7.63
2018-07-26T05:50:41.255Z,7.90
2018-07-26T05:53:09.223Z,13.67
2018-07-26T05:55:36.975Z,16.50
2018-07-26T05:58:05.358Z,9.40
2018-07-26T06:00:33.017Z,6.80
2018-07-26T06:03:00.804Z,6.20
2018-07-26T06:05:28.841Z,7.17
2018-07-26T06:07:56.886Z,9.10
2018-07-26T06:10:24.691Z,11.20
2018-07-26T06:12:52.402Z,11.57
2018-07-26T06:15:20.237Z,11.37
2018-07-26T06:17:48.065Z,22.00
2018-07-26T06:20:15.746Z,10.97
2018-07-26T06:22:43.569Z,18.27
2018-07-26T06:25:11.233Z,22.27
2018-07-26T06:27:39.283Z,19.73
2018-07-26T06:30:09.479Z,14.33
2018-07-26T06:32:37.761Z,13.50
2018-07-26T06:35:05.891Z,16.37
2018-07-26T06:37:33.527Z,19.30
2018-07-26T06:40:01.334Z,17.30
2018-07-26T06:42:28.960Z,20.53
2018-07-26T06:44:56.767Z,24.83
2018-07-26T06:47:24.864Z,13.70
2018-07-26T06:49:52.462Z,24.93
2018-07-26T06:52:20.204Z,31.50
2018-07-26T06:54:47.765Z,21.67
2018-07-26T06:57:15.336Z,21.70
2018-07-26T06:59:42.886Z,16.87
2018-07-26T07:02:10.481Z,14.73
2018-07-26T07:04:38.200Z,20.37
2018-07-26T07:07:05.871Z,14.57
2018-07-26T07:09:33.738Z,13.00
2018-07-26T07:12:01.395Z,17.83
2018-07-26T07:14:29.019Z,19.63
2018-07-26T07:16:56.750Z,13.70
2018-07-26T07:19:24.306Z,13.63
2018-07-26T07:21:52.981Z,15.23
2018-07-26T07:24:21.726Z,13.20
2018-07-26T07:26:51.161Z,12.73
2018-07-26T07:29:19.002Z,15.93
2018-07-26T07:31:48.057Z,12.10
2018-07-26T07:34:15.792Z,21.13
2018-07-26T07:36:44.284Z,13.20
2018-07-26T07:39:13.308Z,18.00
2018-07-26T07:41:41.377Z,11.13
2018-07-26T07:44:09.547Z,13.90
2018-07-26T07:46:38.511Z,12.00
2018-07-26T07:49:06.338Z,13.83
2018-07-26T07:51:35.115Z,19.73
2018-07-26T07:54:03.675Z,16.80
2018-07-26T07:56:33.543Z,20.17
2018-07-26T07:59:02.074Z,10.77
2018-07-26T08:01:29.985Z,10.70
2018-07-26T08:04:01.143Z,14.57
2018-07-26T08:06:29.622Z,19.57
2018-07-26T08:08:58.805Z,11.60
2018-07-26T08:11:28.279Z,16.70
2018-07-26T08:13:57.027Z,13.30
2018-07-26T08:16:25.976Z,15.70
2018-07-26T08:18:54.131Z,9.50
2018-07-26T08:21:23.130Z,8.87
2018-07-26T08:23:52.063Z,12.87
2018-07-26T08:26:21.735Z,8.53
2018-07-26T08:28:49.877Z,10.37
2018-07-26T08:31:17.827Z,9.47
2018-07-26T08:33:50.571Z,10.43
2018-07-26T08:36:19.237Z,10.70
2018-07-26T08:38:52.302Z,12.57
2018-07-26T08:41:21.242Z,10.20
2018-07-26T08:43:52.462Z,12.73
2018-07-26T08:46:20.415Z,7.70
2018-07-26T08:48:49.101Z,14.53
2018-07-26T08:51:17.208Z,10.20
2018-07-26T08:53:45.307Z,15.50
2018-07-26T08:56:13.034Z,12.57
2018-07-26T08:58:41.016Z,8.03
2018-07-26T09:01:08.999Z,8.93
2018-07-26T09:03:37.843Z,7.07
2018-07-26T09:06:07.714Z,11.90
2018-07-26T09:08:35.769Z,8.53
2018-07-26T09:11:03.851Z,12.20
2018-07-26T09:13:31.591Z,10.43
2018-07-26T09:15:59.897Z,7.67
2018-07-26T09:18:27.842Z,14.13
2018-07-26T09:20:55.615Z,9.43
2018-07-26T09:23:24.733Z,5.73
2018-07-26T09:25:52.992Z,8.80
2018-07-26T09:28:20.833Z,8.63
2018-07-26T09:30:48.528Z,18.17
2018-07-26T09:33:16.437Z,6.13
2018-07-26T09:35:44.306Z,9.17
2018-07-26T09:38:12.117Z,8.20
2018-07-26T09:40:40.007Z,6.40
2018-07-26T09:43:07.821Z,8.47
2018-07-26T09:45:35.611Z,6.70
2018-07-26T09:48:03.603Z,12.20
2018-07-26T09:55:27.395Z,6.73
2018-07-26T09:57:55.163Z,17.17
2018-07-26T10:00:30.598Z,7.40
2018-07-26T10:03:03.825Z,7.10
2018-07-26T10:05:31.973Z,7.63
2018-07-26T10:08:00.594Z,4.93
2018-07-26T10:10:28.382Z,5.63
2018-07-26T10:12:56.165Z,8.13
2018-07-26T10:15:24.644Z,5.07
2018-07-26T10:17:52.578Z,12.67
2018-07-26T13:17:25.147Z,12.30
2018-07-26T13:25:44.371Z,5.00
2018-07-26T13:31:10.880Z,10.17
2018-07-26T13:36:28.282Z,9.17
2018-07-26T13:52:35.906Z,7.00
2018-07-26T14:09:07.118Z,7.10
2018-07-26T14:45:18.724Z,5.90
2018-07-26T14:54:04.493Z,8.40
2018-07-26T14:56:45.114Z,9.33
2018-07-26T15:21:23.393Z,4.60
2018-07-26T15:29:33.175Z,7.07
2018-07-26T15:38:17.872Z,4.53
2018-07-26T15:43:35.479Z,6.90
2018-07-26T15:46:09.553Z,14.50
2018-07-26T15:54:46.254Z,9.17
2018-07-26T15:57:14.052Z,11.80
2018-07-26T15:59:42.310Z,9.23
2018-07-26T16:02:10.032Z,4.80
2018-07-26T16:04:38.571Z,9.27
2018-07-26T16:07:07.232Z,7.73
2018-07-26T16:09:35.236Z,7.23
2018-07-26T16:12:02.973Z,4.93
2018-07-26T16:14:30.809Z,8.00
2018-07-26T16:16:58.998Z,7.23
2018-07-26T16:19:26.839Z,4.77
2018-07-26T16:21:54.838Z,8.70
2018-07-26T16:24:22.497Z,6.00
2018-07-26T16:26:50.309Z,4.60
2018-07-26T16:29:17.990Z,5.03
2018-07-26T16:31:45.879Z,9.33
2018-07-26T16:34:13.590Z,8.73
2018-07-26T16:36:41.387Z,5.10
2018-07-26T16:39:10.774Z,8.63
2018-07-26T16:41:39.203Z,6.13
2018-07-26T16:44:07.078Z,4.70
2018-07-26T16:46:35.161Z,6.37
2018-07-26T16:49:03.171Z,4.87
2018-07-26T16:51:30.998Z,9.40
2018-07-26T16:53:58.796Z,11.37
2018-07-26T16:56:26.578Z,15.00
2018-07-26T16:58:54.698Z,10.33
2018-07-26T17:01:22.446Z,7.17
2018-07-26T17:03:50.398Z,5.47
2018-07-26T17:06:24.150Z,7.10
2018-07-26T17:08:52.029Z,6.33
2018-07-26T17:11:19.855Z,8.83
2018-07-26T17:13:47.567Z,5.87
2018-07-26T17:16:15.620Z,7.87
2018-07-26T17:18:43.405Z,8.40
2018-07-26T17:21:11.468Z,5.70
2018-07-26T17:23:39.309Z,4.60
2018-07-26T17:26:07.323Z,7.20
2018-07-26T17:28:35.248Z,8.33
2018-07-26T17:31:03.053Z,13.07
2018-07-26T17:33:30.802Z,6.80
2018-07-26T17:35:58.673Z,5.27
2018-07-26T17:38:26.446Z,10.03
2018-07-26T17:40:54.480Z,9.53
2018-07-26T17:43:23.164Z,8.87
2018-07-26T17:45:51.619Z,4.53
2018-07-26T17:48:19.640Z,5.33
2018-07-26T17:50:47.327Z,6.40
2018-07-26T17:53:15.093Z,7.27
2018-07-26T17:55:43.024Z,6.43
2018-07-26T17:58:10.785Z,7.57
2018-07-26T18:00:38.591Z,4.23
2018-07-26T18:03:06.562Z,8.50
2018-07-26T18:05:34.797Z,5.57
2018-07-26T18:08:02.856Z,14.03
2018-07-26T18:10:30.500Z,16.67
2018-07-26T18:12:58.417Z,12.93
2018-07-26T18:15:26.218Z,7.60
2018-07-26T18:17:53.909Z,14.93
2018-07-26T18:20:21.728Z,14.37
2018-07-26T18:22:49.729Z,7.03
2018-07-26T18:25:17.370Z,8.53
2018-07-26T18:27:45.294Z,12.03
2018-07-26T18:30:13.057Z,6.70
2018-07-26T18:42:30.610Z,7.73
2018-07-26T18:44:58.607Z,11.30
2018-07-26T18:47:27.132Z,11.73
2018-07-26T18:49:55.512Z,6.07
2018-07-26T18:52:23.874Z,14.80
2018-07-26T18:54:54.013Z,7.13
2018-07-26T18:57:21.937Z,9.10
2018-07-26T18:59:50.645Z,10.10
2018-07-26T19:02:18.569Z,18.80
2018-07-26T19:04:46.762Z,7.10
2018-07-26T19:07:15.161Z,8.90
2018-07-26T19:09:43.744Z,6.63
2018-07-26T19:12:11.856Z,8.60
2018-07-26T19:14:39.622Z,10.03
2018-07-26T19:17:08.029Z,7.47
2018-07-26T19:19:37.045Z,7.40
2018-07-26T19:22:05.075Z,7.10
2018-07-26T19:24:32.992Z,5.97
2018-07-26T19:27:01.069Z,9.40
2018-07-26T19:29:28.765Z,7.57
2018-07-26T19:31:56.528Z,9.97
2018-07-26T19:34:24.475Z,8.77
2018-07-26T19:36:52.346Z,9.70
2018-07-26T19:39:20.297Z,9.00
2018-07-26T19:41:48.428Z,8.43
2018-07-26T19:44:16.255Z,10.70
2018-07-26T19:46:43.900Z,9.77
2018-07-26T19:49:11.795Z,8.73
2018-07-26T19:51:39.797Z,10.90
2018-07-26T19:54:07.639Z,15.83
2018-07-26T19:56:35.510Z,21.27
2018-07-26T19:59:03.499Z,25.17
2018-07-26T20:01:31.725Z,15.27
2018-07-26T20:03:59.593Z,22.37
2018-07-26T20:06:27.681Z,25.83
2018-07-26T20:08:55.326Z,17.00
2018-07-26T20:11:23.239Z,12.77
2018-07-26T20:13:51.620Z,12.80
2018-07-26T20:16:19.505Z,17.73
2018-07-26T20:18:47.409Z,10.03
2018-07-26T20:21:15.172Z,11.93
2018-07-26T20:23:43.860Z,15.07
2018-07-26T20:26:13.955Z,14.43
2018-07-26T20:28:41.619Z,8.87
2018-07-26T20:31:09.397Z,13.03
2018-07-26T20:33:37.205Z,11.90
2018-07-26T20:36:04.999Z,12.30
2018-07-26T20:38:32.772Z,10.13
2018-07-26T20:41:01.223Z,15.70
2018-07-26T20:43:28.940Z,15.80
2018-07-26T20:45:56.617Z,8.77
2018-07-26T20:48:26.390Z,9.33
2018-07-26T20:50:54.176Z,9.50
2018-07-26T20:53:21.817Z,7.60
2018-07-26T20:55:49.631Z,9.67
2018-07-26T20:58:17.258Z,10.63
2018-07-26T21:00:45.127Z,8.60
2018-07-26T21:03:13.001Z,8.80
2018-07-26T21:05:41.770Z,14.13
2018-07-26T21:08:09.611Z,12.20
2018-07-26T21:10:37.219Z,19.80
2018-07-26T21:13:05.099Z,12.93
2018-07-26T21:15:32.713Z,7.43
2018-07-26T21:18:00.371Z,13.00
2018-07-26T21:20:28.358Z,14.93
2018-07-26T21:22:56.286Z,7.87
2018-07-26T21:25:23.919Z,12.37
2018-07-26T21:27:57.636Z,15.50
2018-07-26T21:30:25.804Z,18.30
2018-07-26T21:32:54.047Z,14.53
2018-07-26T21:35:21.752Z,17.80
2018-07-26T21:37:49.844Z,11.03
2018-07-26T21:40:17.701Z,8.43
2018-07-26T21:42:45.406Z,10.07
2018-07-26T21:45:13.207Z,8.30
2018-07-26T21:47:40.785Z,16.30
2018-07-26T21:50:08.526Z,12.40
2018-07-26T21:52:36.875Z,25.50
2018-07-26T21:55:04.763Z,15.30
2018-07-26T21:57:32.599Z,11.10
2018-07-26T22:00:00.670Z,11.03
2018-07-26T22:02:28.615Z,29.27
2018-07-26T22:04:57.351Z,21.20
2018-07-26T22:07:25.430Z,15.00
2018-07-26T22:09:53.545Z,14.77
2018-07-26T22:12:21.273Z,18.30
2018-07-26T22:14:50.030Z,23.13
2018-07-26T22:17:17.787Z,15.40
2018-07-26T22:19:45.599Z,11.97
2018-07-26T22:22:13.698Z,12.10
2018-07-26T22:24:41.506Z,23.83
2018-07-26T22:27:09.355Z,15.53
2018-07-26T22:29:37.153Z,13.07
2018-07-26T22:32:05.049Z,18.40
2018-07-26T22:34:32.747Z,19.10
2018-07-26T22:37:00.481Z,17.00
2018-07-26T22:39:28.922Z,13.37
2018-07-26T22:41:56.873Z,11.50
2018-07-26T22:44:24.478Z,19.63
2018-07-26T22:46:52.178Z,16.27
2018-07-26T22:49:21.876Z,18.60
2018-07-26T22:51:49.707Z,30.53
2018-07-26T22:54:17.435Z,15.13
2018-07-26T22:56:45.065Z,18.40
2018-07-26T22:59:12.887Z,18.57
2018-07-26T23:01:40.592Z,17.67
2018-07-26T23:04:08.311Z,28.80
2018-07-26T23:06:36.347Z,29.00
2018-07-26T23:09:05.705Z,23.10
2018-07-26T23:11:33.250Z,21.77
2018-07-26T23:14:01.669Z,31.37
2018-07-26T23:16:29.852Z,30.13
2018-07-26T23:18:57.558Z,27.43
2018-07-26T23:21:26.097Z,28.07
2018-07-26T23:23:53.911Z,29.07
2018-07-26T23:26:21.621Z,24.50
2018-07-26T23:28:49.445Z,23.30
2018-07-26T23:31:18.096Z,25.40
2018-07-26T23:33:46.851Z,29.70
2018-07-26T23:36:15.803Z,33.30
2018-07-26T23:38:44.046Z,32.40
2018-07-26T23:41:11.815Z,27.67
2018-07-26T23:43:40.637Z,33.23
2018-07-26T23:46:08.383Z,29.80
2018-07-26T23:48:36.123Z,32.30
2018-07-26T23:51:10.479Z,37.10
2018-07-26T23:53:38.702Z,37.67
2018-07-26T23:56:06.575Z,35.33
2018-07-26T23:58:34.204Z,40.03
